sensor_id;sensor_type;location;lat;lon;timestamp;P1;durP1;ratioP1;P2;durP2;ratioP2
55222;SDS011;41090;48.632;12.428;2023-12-20T00:02:06;22.50;;;17.80;;
55222;SDS011;41090;48.632;12.428;2023-12-20T00:04:31;21.57;;;18.30;;
55222;SDS011;41090;48.632;12.428;2023-12-20T00:06:57;21.07;;;17.83;;
55222;SDS011;41090;48.632;12.428;2023-12-20T00:09:22;21.20;;;18.90;;
55222;SDS011;41090;48.632;12.428;2023-12-20T00:11:47;20.57;;;18.27;;
55222;SDS011;41090;48.632;12.428;2023-12-20T00:14:12;19.10;;;16.93;;
55222;SDS011;41090;48.632;12.428;2023-12-20T00:16:37;21.73;;;18.97;;
55222;SDS011;41090;48.632;12.428;2023-12-20T00:19:03;21.77;;;19.47;;
55222;SDS011;41090;48.632;12.428;2023-12-20T00:21:28;20.33;;;17.73;;
55222;SDS011;41090;48.632;12.428;2023-12-20T00:23:53;21.43;;;18.53;;
55222;SDS011;41090;48.632;12.428;2023-12-20T00:26:18;20.60;;;18.40;;
55222;SDS011;41090;48.632;12.428;2023-12-20T00:28:43;20.43;;;17.43;;
55222;SDS011;41090;48.632;12.428;2023-12-20T00:31:09;20.30;;;18.20;;
55222;SDS011;41090;48.632;12.428;2023-12-20T00:33:34;21.57;;;18.20;;
55222;SDS011;41090;48.632;12.428;2023-12-20T00:35:59;22.27;;;19.40;;
55222;SDS011;41090;48.632;12.428;2023-12-20T00:38:24;22.00;;;18.37;;
55222;SDS011;41090;48.632;12.428;2023-12-20T00:40:50;21.47;;;19.27;;
55222;SDS011;41090;48.632;12.428;2023-12-20T00:43:15;21.27;;;18.70;;
55222;SDS011;41090;48.632;12.428;2023-12-20T00:45:40;19.47;;;17.47;;
55222;SDS011;41090;48.632;12.428;2023-12-20T00:48:06;20.13;;;18.03;;
55222;SDS011;41090;48.632;12.428;2023-12-20T00:50:31;20.90;;;17.73;;
55222;SDS011;41090;48.632;12.428;2023-12-20T00:52:56;20.40;;;18.20;;
55222;SDS011;41090;48.632;12.428;2023-12-20T00:55:22;19.53;;;17.43;;
55222;SDS011;41090;48.632;12.428;2023-12-20T00:57:47;22.67;;;18.87;;
55222;SDS011;41090;48.632;12.428;2023-12-20T01:00:12;21.10;;;18.77;;
55222;SDS011;41090;48.632;12.428;2023-12-20T01:02:38;21.40;;;19.10;;
55222;SDS011;41090;48.632;12.428;2023-12-20T01:05:03;18.67;;;16.53;;
55222;SDS011;41090;48.632;12.428;2023-12-20T01:07:29;17.77;;;15.33;;
55222;SDS011;41090;48.632;12.428;2023-12-20T01:09:54;18.57;;;16.17;;
55222;SDS011;41090;48.632;12.428;2023-12-20T01:12:19;19.93;;;17.93;;
55222;SDS011;41090;48.632;12.428;2023-12-20T01:14:45;21.70;;;18.53;;
55222;SDS011;41090;48.632;12.428;2023-12-20T01:17:10;19.33;;;17.27;;
55222;SDS011;41090;48.632;12.428;2023-12-20T01:19:36;19.00;;;17.00;;
55222;SDS011;41090;48.632;12.428;2023-12-20T01:22:01;20.40;;;17.07;;
55222;SDS011;41090;48.632;12.428;2023-12-20T01:24:26;18.93;;;16.50;;
55222;SDS011;41090;48.632;12.428;2023-12-20T01:26:51;19.57;;;17.47;;
55222;SDS011;41090;48.632;12.428;2023-12-20T01:29:16;17.37;;;15.57;;
55222;SDS011;41090;48.632;12.428;2023-12-20T01:31:42;19.10;;;16.10;;
55222;SDS011;41090;48.632;12.428;2023-12-20T01:34:07;19.80;;;16.67;;
55222;SDS011;41090;48.632;12.428;2023-12-20T01:36:32;17.57;;;15.63;;
55222;SDS011;41090;48.632;12.428;2023-12-20T01:38:57;18.03;;;16.13;;
55222;SDS011;41090;48.632;12.428;2023-12-20T01:41:23;15.27;;;13.67;;
55222;SDS011;41090;48.632;12.428;2023-12-20T01:43:48;19.10;;;17.10;;
55222;SDS011;41090;48.632;12.428;2023-12-20T01:46:13;18.07;;;16.17;;
55222;SDS011;41090;48.632;12.428;2023-12-20T01:48:39;17.10;;;15.30;;
55222;SDS011;41090;48.632;12.428;2023-12-20T01:51:05;18.17;;;15.33;;
55222;SDS011;41090;48.632;12.428;2023-12-20T01:53:30;17.67;;;15.30;;
55222;SDS011;41090;48.632;12.428;2023-12-20T01:55:57;21.50;;;17.63;;
55222;SDS011;41090;48.632;12.428;2023-12-20T01:58:23;18.57;;;15.93;;
55222;SDS011;41090;48.632;12.428;2023-12-20T02:00:49;17.90;;;15.77;;
55222;SDS011;41090;48.632;12.428;2023-12-20T02:03:15;15.63;;;14.03;;
55222;SDS011;41090;48.632;12.428;2023-12-20T02:05:40;19.97;;;16.77;;
55222;SDS011;41090;48.632;12.428;2023-12-20T02:08:06;18.13;;;15.93;;
55222;SDS011;41090;48.632;12.428;2023-12-20T02:10:31;18.63;;;16.07;;
55222;SDS011;41090;48.632;12.428;2023-12-20T02:12:57;17.37;;;14.77;;
55222;SDS011;41090;48.632;12.428;2023-12-20T02:15:22;17.00;;;15.20;;
55222;SDS011;41090;48.632;12.428;2023-12-20T02:17:47;16.27;;;14.37;;
55222;SDS011;41090;48.632;12.428;2023-12-20T02:20:13;15.30;;;13.70;;
55222;SDS011;41090;48.632;12.428;2023-12-20T02:22:39;15.63;;;13.53;;
55222;SDS011;41090;48.632;12.428;2023-12-20T02:25:04;14.43;;;12.93;;
55222;SDS011;41090;48.632;12.428;2023-12-20T02:27:29;15.20;;;13.60;;
55222;SDS011;41090;48.632;12.428;2023-12-20T02:29:55;15.10;;;13.23;;
55222;SDS011;41090;48.632;12.428;2023-12-20T02:32:21;17.50;;;14.63;;
55222;SDS011;41090;48.632;12.428;2023-12-20T02:34:47;16.97;;;14.20;;
55222;SDS011;41090;48.632;12.428;2023-12-20T02:37:12;15.87;;;13.67;;
55222;SDS011;41090;48.632;12.428;2023-12-20T02:39:37;17.57;;;14.90;;
55222;SDS011;41090;48.632;12.428;2023-12-20T02:42:03;18.20;;;16.30;;
55222;SDS011;41090;48.632;12.428;2023-12-20T02:44:28;16.57;;;14.27;;
55222;SDS011;41090;48.632;12.428;2023-12-20T02:46:53;17.30;;;14.90;;
55222;SDS011;41090;48.632;12.428;2023-12-20T02:49:19;16.27;;;14.57;;
55222;SDS011;41090;48.632;12.428;2023-12-20T02:51:44;17.40;;;14.93;;
55222;SDS011;41090;48.632;12.428;2023-12-20T02:54:09;15.47;;;13.60;;
55222;SDS011;41090;48.632;12.428;2023-12-20T02:56:35;16.10;;;13.77;;
55222;SDS011;41090;48.632;12.428;2023-12-20T02:59:00;15.13;;;13.20;;
55222;SDS011;41090;48.632;12.428;2023-12-20T03:01:26;14.47;;;12.90;;
55222;SDS011;41090;48.632;12.428;2023-12-20T03:03:51;14.40;;;12.90;;
55222;SDS011;41090;48.632;12.428;2023-12-20T03:06:17;15.00;;;13.47;;
55222;SDS011;41090;48.632;12.428;2023-12-20T03:08:42;13.77;;;12.37;;
55222;SDS011;41090;48.632;12.428;2023-12-20T03:11:07;15.60;;;14.00;;
55222;SDS011;41090;48.632;12.428;2023-12-20T03:13:33;15.67;;;13.70;;
55222;SDS011;41090;48.632;12.428;2023-12-20T03:15:58;13.90;;;12.50;;
55222;SDS011;41090;48.632;12.428;2023-12-20T03:18:23;15.60;;;13.27;;
55222;SDS011;41090;48.632;12.428;2023-12-20T03:20:48;17.57;;;14.03;;
55222;SDS011;41090;48.632;12.428;2023-12-20T03:23:15;14.00;;;12.50;;
55222;SDS011;41090;48.632;12.428;2023-12-20T03:25:40;14.57;;;13.07;;
55222;SDS011;41090;48.632;12.428;2023-12-20T03:28:06;13.83;;;12.40;;
55222;SDS011;41090;48.632;12.428;2023-12-20T03:30:31;12.87;;;11.40;;
55222;SDS011;41090;48.632;12.428;2023-12-20T03:32:57;16.43;;;13.90;;
55222;SDS011;41090;48.632;12.428;2023-12-20T03:35:22;13.90;;;12.30;;
55222;SDS011;41090;48.632;12.428;2023-12-20T03:37:47;16.33;;;14.03;;
55222;SDS011;41090;48.632;12.428;2023-12-20T03:40:13;15.20;;;13.10;;
55222;SDS011;41090;48.632;12.428;2023-12-20T03:42:38;13.93;;;10.93;;
55222;SDS011;41090;48.632;12.428;2023-12-20T03:45:03;14.17;;;12.43;;
55222;SDS011;41090;48.632;12.428;2023-12-20T03:47:29;12.77;;;11.57;;
55222;SDS011;41090;48.632;12.428;2023-12-20T03:49:54;14.57;;;13.00;;
55222;SDS011;41090;48.632;12.428;2023-12-20T03:52:19;14.80;;;13.20;;
55222;SDS011;41090;48.632;12.428;2023-12-20T03:54:44;14.30;;;12.80;;
55222;SDS011;41090;48.632;12.428;2023-12-20T03:57:10;13.77;;;12.37;;
55222;SDS011;41090;48.632;12.428;2023-12-20T03:59:35;14.60;;;13.10;;
55222;SDS011;41090;48.632;12.428;2023-12-20T04:02:01;13.53;;;11.63;;
55222;SDS011;41090;48.632;12.428;2023-12-20T04:04:27;14.10;;;12.50;;
55222;SDS011;41090;48.632;12.428;2023-12-20T04:06:52;14.20;;;12.50;;
55222;SDS011;41090;48.632;12.428;2023-12-20T04:09:17;13.90;;;12.47;;
55222;SDS011;41090;48.632;12.428;2023-12-20T04:11:42;14.20;;;11.87;;
55222;SDS011;41090;48.632;12.428;2023-12-20T04:14:07;14.03;;;12.63;;
55222;SDS011;41090;48.632;12.428;2023-12-20T04:16:33;13.03;;;11.37;;
55222;SDS011;41090;48.632;12.428;2023-12-20T04:18:58;13.13;;;11.83;;
55222;SDS011;41090;48.632;12.428;2023-12-20T04:21:23;12.10;;;10.90;;
55222;SDS011;41090;48.632;12.428;2023-12-20T04:23:48;14.23;;;11.97;;
55222;SDS011;41090;48.632;12.428;2023-12-20T04:26:14;12.77;;;11.47;;
55222;SDS011;41090;48.632;12.428;2023-12-20T04:28:39;12.67;;;11.43;;
55222;SDS011;41090;48.632;12.428;2023-12-20T04:31:04;11.37;;;10.20;;
55222;SDS011;41090;48.632;12.428;2023-12-20T04:33:29;12.00;;;10.73;;
55222;SDS011;41090;48.632;12.428;2023-12-20T04:35:55;10.90;;;9.80;;
55222;SDS011;41090;48.632;12.428;2023-12-20T04:38:20;11.40;;;10.10;;
55222;SDS011;41090;48.632;12.428;2023-12-20T04:40:45;10.87;;;9.77;;
55222;SDS011;41090;48.632;12.428;2023-12-20T04:43:11;11.17;;;9.23;;
55222;SDS011;41090;48.632;12.428;2023-12-20T04:45:36;9.80;;;8.87;;
55222;SDS011;41090;48.632;12.428;2023-12-20T04:48:01;11.63;;;9.07;;
55222;SDS011;41090;48.632;12.428;2023-12-20T04:50:27;8.90;;;8.00;;
55222;SDS011;41090;48.632;12.428;2023-12-20T04:52:52;7.67;;;6.87;;
55222;SDS011;41090;48.632;12.428;2023-12-20T04:55:17;7.80;;;6.73;;
55222;SDS011;41090;48.632;12.428;2023-12-20T04:57:43;8.03;;;7.00;;
55222;SDS011;41090;48.632;12.428;2023-12-20T05:00:08;8.57;;;7.30;;
55222;SDS011;41090;48.632;12.428;2023-12-20T05:02:34;6.87;;;6.17;;
55222;SDS011;41090;48.632;12.428;2023-12-20T05:04:59;8.27;;;7.00;;
55222;SDS011;41090;48.632;12.428;2023-12-20T05:07:25;9.23;;;6.60;;
55222;SDS011;41090;48.632;12.428;2023-12-20T05:09:50;7.50;;;5.57;;
55222;SDS011;41090;48.632;12.428;2023-12-20T05:12:15;6.03;;;5.23;;
55222;SDS011;41090;48.632;12.428;2023-12-20T05:14:40;10.33;;;5.00;;
55222;SDS011;41090;48.632;12.428;2023-12-20T05:17:05;5.03;;;4.30;;
55222;SDS011;41090;48.632;12.428;2023-12-20T05:19:31;7.30;;;4.80;;
55222;SDS011;41090;48.632;12.428;2023-12-20T05:22:00;6.90;;;4.30;;
55222;SDS011;41090;48.632;12.428;2023-12-20T05:24:25;10.03;;;3.83;;
55222;SDS011;41090;48.632;12.428;2023-12-20T05:26:50;7.13;;;3.70;;
55222;SDS011;41090;48.632;12.428;2023-12-20T05:29:15;5.90;;;3.70;;
55222;SDS011;41090;48.632;12.428;2023-12-20T05:31:41;6.23;;;3.93;;
55222;SDS011;41090;48.632;12.428;2023-12-20T05:34:06;5.27;;;4.77;;
55222;SDS011;41090;48.632;12.428;2023-12-20T05:36:31;9.00;;;6.50;;
55222;SDS011;41090;48.632;12.428;2023-12-20T05:38:57;11.00;;;8.40;;
55222;SDS011;41090;48.632;12.428;2023-12-20T05:41:22;9.93;;;7.07;;
55222;SDS011;41090;48.632;12.428;2023-12-20T05:43:47;9.70;;;6.33;;
55222;SDS011;41090;48.632;12.428;2023-12-20T05:46:13;6.80;;;4.87;;
55222;SDS011;41090;48.632;12.428;2023-12-20T05:48:38;4.30;;;3.87;;
55222;SDS011;41090;48.632;12.428;2023-12-20T05:51:03;4.40;;;3.60;;
55222;SDS011;41090;48.632;12.428;2023-12-20T05:53:29;4.37;;;3.97;;
55222;SDS011;41090;48.632;12.428;2023-12-20T05:55:54;4.93;;;3.50;;
55222;SDS011;41090;48.632;12.428;2023-12-20T05:58:19;5.27;;;4.77;;
55222;SDS011;41090;48.632;12.428;2023-12-20T06:00:45;14.83;;;7.90;;
55222;SDS011;41090;48.632;12.428;2023-12-20T06:03:10;11.80;;;6.63;;
55222;SDS011;41090;48.632;12.428;2023-12-20T06:05:35;14.77;;;8.03;;
55222;SDS011;41090;48.632;12.428;2023-12-20T06:08:00;14.33;;;8.33;;
55222;SDS011;41090;48.632;12.428;2023-12-20T06:10:28;6.63;;;4.50;;
55222;SDS011;41090;48.632;12.428;2023-12-20T06:12:53;5.33;;;4.40;;
55222;SDS011;41090;48.632;12.428;2023-12-20T06:15:18;4.77;;;3.80;;
55222;SDS011;41090;48.632;12.428;2023-12-20T06:17:43;4.57;;;4.10;;
55222;SDS011;41090;48.632;12.428;2023-12-20T06:20:09;7.57;;;4.97;;
55222;SDS011;41090;48.632;12.428;2023-12-20T06:22:35;4.67;;;4.23;;
55222;SDS011;41090;48.632;12.428;2023-12-20T06:25:00;12.33;;;7.17;;
55222;SDS011;41090;48.632;12.428;2023-12-20T06:27:25;9.53;;;6.00;;
55222;SDS011;41090;48.632;12.428;2023-12-20T06:29:51;4.70;;;4.20;;
55222;SDS011;41090;48.632;12.428;2023-12-20T06:32:16;3.80;;;3.40;;
55222;SDS011;41090;48.632;12.428;2023-12-20T06:34:41;5.57;;;3.57;;
55222;SDS011;41090;48.632;12.428;2023-12-20T06:37:06;3.50;;;3.20;;
55222;SDS011;41090;48.632;12.428;2023-12-20T06:39:32;4.00;;;3.53;;
55222;SDS011;41090;48.632;12.428;2023-12-20T06:41:59;4.00;;;3.40;;
55222;SDS011;41090;48.632;12.428;2023-12-20T06:44:24;4.43;;;3.30;;
55222;SDS011;41090;48.632;12.428;2023-12-20T06:46:49;3.70;;;3.33;;
55222;SDS011;41090;48.632;12.428;2023-12-20T06:49:14;6.40;;;4.00;;
55222;SDS011;41090;48.632;12.428;2023-12-20T06:51:40;3.50;;;3.20;;
55222;SDS011;41090;48.632;12.428;2023-12-20T06:54:05;4.20;;;3.80;;
55222;SDS011;41090;48.632;12.428;2023-12-20T06:56:30;3.60;;;3.30;;
55222;SDS011;41090;48.632;12.428;2023-12-20T06:58:55;3.70;;;3.30;;
55222;SDS011;41090;48.632;12.428;2023-12-20T07:01:21;3.73;;;2.90;;
55222;SDS011;41090;48.632;12.428;2023-12-20T07:03:46;2.90;;;2.70;;
55222;SDS011;41090;48.632;12.428;2023-12-20T07:06:11;3.00;;;2.80;;
55222;SDS011;41090;48.632;12.428;2023-12-20T07:08:36;3.13;;;2.83;;
55222;SDS011;41090;48.632;12.428;2023-12-20T07:11:02;3.10;;;2.80;;
55222;SDS011;41090;48.632;12.428;2023-12-20T07:13:27;2.60;;;2.40;;
55222;SDS011;41090;48.632;12.428;2023-12-20T07:15:52;2.47;;;2.20;;
55222;SDS011;41090;48.632;12.428;2023-12-20T07:18:17;2.70;;;2.50;;
55222;SDS011;41090;48.632;12.428;2023-12-20T07:20:43;2.90;;;2.40;;
55222;SDS011;41090;48.632;12.428;2023-12-20T07:23:08;3.07;;;2.60;;
55222;SDS011;41090;48.632;12.428;2023-12-20T07:25:33;2.60;;;2.40;;
55222;SDS011;41090;48.632;12.428;2023-12-20T07:27:59;3.27;;;2.97;;
55222;SDS011;41090;48.632;12.428;2023-12-20T07:30:24;3.13;;;2.83;;
55222;SDS011;41090;48.632;12.428;2023-12-20T07:32:49;2.63;;;2.43;;
55222;SDS011;41090;48.632;12.428;2023-12-20T07:35:17;2.63;;;2.43;;
55222;SDS011;41090;48.632;12.428;2023-12-20T07:37:43;2.97;;;2.60;;
55222;SDS011;41090;48.632;12.428;2023-12-20T07:40:08;2.60;;;2.33;;
55222;SDS011;41090;48.632;12.428;2023-12-20T07:42:33;2.63;;;2.43;;
55222;SDS011;41090;48.632;12.428;2023-12-20T07:44:58;2.70;;;2.50;;
55222;SDS011;41090;48.632;12.428;2023-12-20T07:47:24;2.60;;;2.40;;
55222;SDS011;41090;48.632;12.428;2023-12-20T07:49:50;3.63;;;2.57;;
55222;SDS011;41090;48.632;12.428;2023-12-20T07:52:16;2.63;;;2.40;;
55222;SDS011;41090;48.632;12.428;2023-12-20T07:54:42;2.87;;;2.20;;
55222;SDS011;41090;48.632;12.428;2023-12-20T07:57:07;2.60;;;2.40;;
55222;SDS011;41090;48.632;12.428;2023-12-20T07:59:32;2.50;;;2.30;;
55222;SDS011;41090;48.632;12.428;2023-12-20T08:01:58;2.70;;;2.50;;
55222;SDS011;41090;48.632;12.428;2023-12-20T08:04:23;2.70;;;2.50;;
55222;SDS011;41090;48.632;12.428;2023-12-20T08:06:48;2.90;;;2.33;;
55222;SDS011;41090;48.632;12.428;2023-12-20T08:09:13;3.00;;;2.70;;
55222;SDS011;41090;48.632;12.428;2023-12-20T08:11:38;2.90;;;2.70;;
55222;SDS011;41090;48.632;12.428;2023-12-20T08:14:04;3.37;;;3.07;;
55222;SDS011;41090;48.632;12.428;2023-12-20T08:16:29;3.00;;;2.70;;
55222;SDS011;41090;48.632;12.428;2023-12-20T08:18:54;3.13;;;2.83;;
55222;SDS011;41090;48.632;12.428;2023-12-20T08:21:19;3.10;;;2.80;;
55222;SDS011;41090;48.632;12.428;2023-12-20T08:23:47;2.87;;;2.67;;
55222;SDS011;41090;48.632;12.428;2023-12-20T08:26:12;3.00;;;2.80;;
55222;SDS011;41090;48.632;12.428;2023-12-20T08:28:38;3.33;;;3.03;;
55222;SDS011;41090;48.632;12.428;2023-12-20T08:31:03;3.07;;;2.77;;
55222;SDS011;41090;48.632;12.428;2023-12-20T08:33:28;3.53;;;3.20;;
55222;SDS011;41090;48.632;12.428;2023-12-20T08:35:53;2.80;;;2.60;;
55222;SDS011;41090;48.632;12.428;2023-12-20T08:38:19;3.40;;;3.10;;
55222;SDS011;41090;48.632;12.428;2023-12-20T08:40:44;3.33;;;3.03;;
55222;SDS011;41090;48.632;12.428;2023-12-20T08:43:09;3.20;;;2.90;;
55222;SDS011;41090;48.632;12.428;2023-12-20T08:45:35;3.30;;;3.00;;
55222;SDS011;41090;48.632;12.428;2023-12-20T08:48:00;3.30;;;3.00;;
55222;SDS011;41090;48.632;12.428;2023-12-20T08:50:25;4.00;;;3.60;;
55222;SDS011;41090;48.632;12.428;2023-12-20T08:52:51;3.50;;;3.20;;
55222;SDS011;41090;48.632;12.428;2023-12-20T08:55:16;3.47;;;3.17;;
55222;SDS011;41090;48.632;12.428;2023-12-20T08:57:43;2.83;;;2.63;;
55222;SDS011;41090;48.632;12.428;2023-12-20T09:00:08;2.80;;;2.60;;
55222;SDS011;41090;48.632;12.428;2023-12-20T09:02:33;2.87;;;2.67;;
55222;SDS011;41090;48.632;12.428;2023-12-20T09:05:01;3.43;;;3.13;;
55222;SDS011;41090;48.632;12.428;2023-12-20T09:07:26;3.10;;;2.90;;
55222;SDS011;41090;48.632;12.428;2023-12-20T09:09:52;3.73;;;3.00;;
55222;SDS011;41090;48.632;12.428;2023-12-20T09:12:21;3.50;;;3.20;;
55222;SDS011;41090;48.632;12.428;2023-12-20T09:14:49;3.63;;;3.27;;
55222;SDS011;41090;48.632;12.428;2023-12-20T09:17:15;4.00;;;3.70;;
55222;SDS011;41090;48.632;12.428;2023-12-20T09:19:41;4.20;;;3.70;;
55222;SDS011;41090;48.632;12.428;2023-12-20T09:22:06;3.80;;;3.30;;
55222;SDS011;41090;48.632;12.428;2023-12-20T09:24:32;3.60;;;3.30;;
55222;SDS011;41090;48.632;12.428;2023-12-20T09:26:57;4.10;;;3.50;;
55222;SDS011;41090;48.632;12.428;2023-12-20T09:29:23;3.90;;;3.60;;
55222;SDS011;41090;48.632;12.428;2023-12-20T09:31:48;3.30;;;3.00;;
55222;SDS011;41090;48.632;12.428;2023-12-20T09:34:14;3.43;;;3.13;;
55222;SDS011;41090;48.632;12.428;2023-12-20T09:36:39;3.70;;;3.10;;
55222;SDS011;41090;48.632;12.428;2023-12-20T09:39:11;4.60;;;3.40;;
55222;SDS011;41090;48.632;12.428;2023-12-20T09:41:37;3.13;;;2.90;;
55222;SDS011;41090;48.632;12.428;2023-12-20T09:44:02;3.13;;;2.83;;
55222;SDS011;41090;48.632;12.428;2023-12-20T09:46:28;3.20;;;2.90;;
55222;SDS011;41090;48.632;12.428;2023-12-20T09:48:54;2.90;;;2.70;;
55222;SDS011;41090;48.632;12.428;2023-12-20T09:51:20;3.03;;;2.77;;
55222;SDS011;41090;48.632;12.428;2023-12-20T09:53:45;3.20;;;2.93;;
55222;SDS011;41090;48.632;12.428;2023-12-20T09:56:12;2.70;;;2.50;;
55222;SDS011;41090;48.632;12.428;2023-12-20T09:58:37;3.73;;;2.83;;
55222;SDS011;41090;48.632;12.428;2023-12-20T10:01:04;3.27;;;2.97;;
55222;SDS011;41090;48.632;12.428;2023-12-20T10:03:30;2.97;;;2.73;;
55222;SDS011;41090;48.632;12.428;2023-12-20T10:05:56;3.10;;;2.80;;
55222;SDS011;41090;48.632;12.428;2023-12-20T10:08:22;3.93;;;2.87;;
55222;SDS011;41090;48.632;12.428;2023-12-20T10:10:49;3.40;;;2.70;;
55222;SDS011;41090;48.632;12.428;2023-12-20T10:13:14;3.07;;;2.80;;
55222;SDS011;41090;48.632;12.428;2023-12-20T10:15:40;3.33;;;2.97;;
55222;SDS011;41090;48.632;12.428;2023-12-20T10:18:06;2.90;;;2.70;;
55222;SDS011;41090;48.632;12.428;2023-12-20T10:20:31;3.03;;;2.77;;
55222;SDS011;41090;48.632;12.428;2023-12-20T10:22:57;4.70;;;3.30;;
55222;SDS011;41090;48.632;12.428;2023-12-20T10:25:23;3.20;;;2.90;;
55222;SDS011;41090;48.632;12.428;2023-12-20T10:27:49;3.83;;;3.20;;
55222;SDS011;41090;48.632;12.428;2023-12-20T10:30:14;3.30;;;2.97;;
55222;SDS011;41090;48.632;12.428;2023-12-20T10:32:40;4.77;;;4.07;;
55222;SDS011;41090;48.632;12.428;2023-12-20T10:35:06;3.97;;;3.20;;
55222;SDS011;41090;48.632;12.428;2023-12-20T10:37:34;8.73;;;6.60;;
55222;SDS011;41090;48.632;12.428;2023-12-20T10:40:00;3.47;;;3.17;;
55222;SDS011;41090;48.632;12.428;2023-12-20T10:42:27;4.90;;;4.07;;
55222;SDS011;41090;48.632;12.428;2023-12-20T10:44:54;7.47;;;6.67;;
55222;SDS011;41090;48.632;12.428;2023-12-20T10:47:20;4.13;;;3.83;;
55222;SDS011;41090;48.632;12.428;2023-12-20T10:49:45;3.57;;;3.27;;
55222;SDS011;41090;48.632;12.428;2023-12-20T10:52:11;5.40;;;4.90;;
55222;SDS011;41090;48.632;12.428;2023-12-20T10:54:36;4.43;;;4.03;;
55222;SDS011;41090;48.632;12.428;2023-12-20T10:57:02;3.60;;;3.30;;
55222;SDS011;41090;48.632;12.428;2023-12-20T10:59:29;4.30;;;3.87;;
55222;SDS011;41090;48.632;12.428;2023-12-20T11:01:54;4.70;;;4.00;;
55222;SDS011;41090;48.632;12.428;2023-12-20T11:04:25;14.87;;;12.27;;
55222;SDS011;41090;48.632;12.428;2023-12-20T11:07:04;6.33;;;5.73;;
55222;SDS011;41090;48.632;12.428;2023-12-20T11:09:33;4.80;;;4.40;;
55222;SDS011;41090;48.632;12.428;2023-12-20T11:12:09;3.83;;;3.53;;
55222;SDS011;41090;48.632;12.428;2023-12-20T11:14:39;3.77;;;3.47;;
55222;SDS011;41090;48.632;12.428;2023-12-20T11:17:09;3.03;;;2.70;;
55222;SDS011;41090;48.632;12.428;2023-12-20T11:22:21;2.80;;;2.50;;
55222;SDS011;41090;48.632;12.428;2023-12-20T11:24:47;2.50;;;2.30;;
55222;SDS011;41090;48.632;12.428;2023-12-20T11:27:12;2.67;;;2.47;;
55222;SDS011;41090;48.632;12.428;2023-12-20T11:29:38;2.90;;;2.67;;
55222;SDS011;41090;48.632;12.428;2023-12-20T11:32:50;2.83;;;2.63;;
55222;SDS011;41090;48.632;12.428;2023-12-20T11:34:54;3.40;;;3.10;;
55222;SDS011;41090;48.632;12.428;2023-12-20T11:37:19;4.30;;;3.90;;
55222;SDS011;41090;48.632;12.428;2023-12-20T11:39:45;6.20;;;5.60;;
55222;SDS011;41090;48.632;12.428;2023-12-20T11:42:10;5.50;;;4.90;;
55222;SDS011;41090;48.632;12.428;2023-12-20T11:44:36;6.63;;;5.90;;
55222;SDS011;41090;48.632;12.428;2023-12-20T11:47:01;4.27;;;3.87;;
55222;SDS011;41090;48.632;12.428;2023-12-20T11:49:26;3.77;;;3.47;;
55222;SDS011;41090;48.632;12.428;2023-12-20T11:51:54;3.43;;;3.23;;
55222;SDS011;41090;48.632;12.428;2023-12-20T11:54:19;4.23;;;2.80;;
55222;SDS011;41090;48.632;12.428;2023-12-20T11:56:45;3.30;;;3.00;;
55222;SDS011;41090;48.632;12.428;2023-12-20T11:59:10;2.70;;;2.50;;
55222;SDS011;41090;48.632;12.428;2023-12-20T12:01:36;2.90;;;2.70;;
55222;SDS011;41090;48.632;12.428;2023-12-20T12:04:02;2.53;;;2.33;;
55222;SDS011;41090;48.632;12.428;2023-12-20T12:06:27;2.40;;;2.20;;
55222;SDS011;41090;48.632;12.428;2023-12-20T12:08:52;3.67;;;2.60;;
55222;SDS011;41090;48.632;12.428;2023-12-20T12:11:19;2.77;;;2.57;;
55222;SDS011;41090;48.632;12.428;2023-12-20T12:13:44;2.50;;;2.30;;
55222;SDS011;41090;48.632;12.428;2023-12-20T12:16:09;2.10;;;1.90;;
55222;SDS011;41090;48.632;12.428;2023-12-20T12:18:35;2.53;;;2.00;;
55222;SDS011;41090;48.632;12.428;2023-12-20T12:21:01;2.30;;;2.10;;
55222;SDS011;41090;48.632;12.428;2023-12-20T12:23:27;2.03;;;1.87;;
55222;SDS011;41090;48.632;12.428;2023-12-20T12:25:52;2.47;;;2.27;;
55222;SDS011;41090;48.632;12.428;2023-12-20T12:28:20;3.27;;;2.97;;
55222;SDS011;41090;48.632;12.428;2023-12-20T12:31:00;3.60;;;3.30;;
55222;SDS011;41090;48.632;12.428;2023-12-20T12:33:26;5.50;;;5.00;;
55222;SDS011;41090;48.632;12.428;2023-12-20T12:35:51;4.37;;;3.97;;
55222;SDS011;41090;48.632;12.428;2023-12-20T12:38:19;6.30;;;4.93;;
55222;SDS011;41090;48.632;12.428;2023-12-20T12:40:44;7.77;;;6.70;;
55222;SDS011;41090;48.632;12.428;2023-12-20T12:43:10;4.97;;;3.87;;
55222;SDS011;41090;48.632;12.428;2023-12-20T12:45:35;3.33;;;2.90;;
55222;SDS011;41090;48.632;12.428;2023-12-20T12:48:01;2.60;;;2.40;;
55222;SDS011;41090;48.632;12.428;2023-12-20T12:50:26;4.30;;;3.60;;
55222;SDS011;41090;48.632;12.428;2023-12-20T12:52:53;4.97;;;3.93;;
55222;SDS011;41090;48.632;12.428;2023-12-20T12:55:18;3.73;;;2.87;;
55222;SDS011;41090;48.632;12.428;2023-12-20T12:57:44;3.10;;;2.80;;
55222;SDS011;41090;48.632;12.428;2023-12-20T13:00:09;4.20;;;3.80;;
55222;SDS011;41090;48.632;12.428;2023-12-20T13:02:35;4.00;;;3.20;;
55222;SDS011;41090;48.632;12.428;2023-12-20T13:05:00;3.53;;;2.80;;
55222;SDS011;41090;48.632;12.428;2023-12-20T13:07:27;4.40;;;2.70;;
55222;SDS011;41090;48.632;12.428;2023-12-20T13:09:52;2.83;;;2.63;;
55222;SDS011;41090;48.632;12.428;2023-12-20T13:12:18;2.67;;;2.47;;
55222;SDS011;41090;48.632;12.428;2023-12-20T13:14:43;3.37;;;2.50;;
55222;SDS011;41090;48.632;12.428;2023-12-20T13:17:08;2.77;;;2.53;;
55222;SDS011;41090;48.632;12.428;2023-12-20T13:19:33;2.60;;;2.40;;
55222;SDS011;41090;48.632;12.428;2023-12-20T13:21:59;2.90;;;2.40;;
55222;SDS011;41090;48.632;12.428;2023-12-20T13:24:24;2.70;;;2.50;;
55222;SDS011;41090;48.632;12.428;2023-12-20T13:26:49;3.07;;;2.77;;
55222;SDS011;41090;48.632;12.428;2023-12-20T13:29:14;3.60;;;3.20;;
55222;SDS011;41090;48.632;12.428;2023-12-20T13:31:40;3.87;;;3.37;;
55222;SDS011;41090;48.632;12.428;2023-12-20T13:34:05;2.87;;;2.40;;
55222;SDS011;41090;48.632;12.428;2023-12-20T13:36:30;2.53;;;2.33;;
55222;SDS011;41090;48.632;12.428;2023-12-20T13:38:55;2.63;;;2.43;;
55222;SDS011;41090;48.632;12.428;2023-12-20T13:41:21;3.07;;;2.40;;
55222;SDS011;41090;48.632;12.428;2023-12-20T13:43:46;2.97;;;2.43;;
55222;SDS011;41090;48.632;12.428;2023-12-20T13:46:11;3.23;;;2.70;;
55222;SDS011;41090;48.632;12.428;2023-12-20T13:48:38;3.40;;;2.93;;
55222;SDS011;41090;48.632;12.428;2023-12-20T13:51:04;2.93;;;2.40;;
55222;SDS011;41090;48.632;12.428;2023-12-20T13:53:30;2.90;;;2.43;;
55222;SDS011;41090;48.632;12.428;2023-12-20T13:55:56;3.23;;;2.40;;
55222;SDS011;41090;48.632;12.428;2023-12-20T13:58:22;2.60;;;2.33;;
55222;SDS011;41090;48.632;12.428;2023-12-20T14:00:47;2.97;;;2.33;;
55222;SDS011;41090;48.632;12.428;2023-12-20T14:03:13;3.93;;;2.60;;
55222;SDS011;41090;48.632;12.428;2023-12-20T14:05:38;3.77;;;2.40;;
55222;SDS011;41090;48.632;12.428;2023-12-20T14:08:04;4.13;;;2.60;;
55222;SDS011;41090;48.632;12.428;2023-12-20T14:10:29;3.80;;;2.40;;
55222;SDS011;41090;48.632;12.428;2023-12-20T14:12:54;3.00;;;1.90;;
55222;SDS011;41090;48.632;12.428;2023-12-20T14:15:20;3.60;;;2.30;;
55222;SDS011;41090;48.632;12.428;2023-12-20T14:17:45;3.33;;;2.30;;
55222;SDS011;41090;48.632;12.428;2023-12-20T14:20:10;3.67;;;2.10;;